Time;durP1;ratioP1;P1;durP2;ratioP2;P2;SDS_P1;SDS_P2;PMS_P1;PMS_P2;Temp;Humidity;BMP_temperature;BMP_pressure;BME280_temperature;BME280_humidity;BME280_pressure;Samples;Min_cycle;Max_cycle;Signal;HPM_P1;HPM_P2
2022/11/03 08:01:33;;;;;;;8.27;3.10;;;;;;;12.52;86.99;100722.88;5408956;27;20246;-69
2022/11/03 08:04:09;;;;;;;9.05;4.30;;;;;;;12.56;86.33;100723.94;5370393;27;20407;-69
2022/11/03 08:06:43;;;;;;;12.32;3.50;;;;;;;12.58;86.37;100710.56;5365631;27;20019;-69
2022/11/03 08:09:14;;;;;;;8.30;3.38;;;;;;;12.60;86.08;100704.66;5379601;27;20417;-69
2022/11/03 08:11:46;;;;;;;8.82;2.95;;;;;;;12.62;85.37;100697.66;5386260;27;20110;-69
2022/11/03 08:14:18;;;;;;;6.93;3.03;;;;;;;12.65;85.19;100698.19;5386819;27;20030;-69
2022/11/03 08:16:49;;;;;;;10.43;4.05;;;;;;;12.68;85.36;100701.22;5386641;27;20023;-69
2022/11/03 08:19:20;;;;;;;6.50;3.30;;;;;;;12.71;84.67;100692.22;5384951;27;20030;-69
2022/11/03 08:21:52;;;;;;;13.38;3.28;;;;;;;12.76;84.86;100680.19;5387026;27;20039;-69
2022/11/03 08:24:23;;;;;;;8.27;2.95;;;;;;;12.74;84.19;100672.13;5385194;27;20030;-68
2022/11/03 08:26:54;;;;;;;5.45;2.78;;;;;;;12.81;85.44;100668.94;5386327;27;20396;-68
2022/11/03 08:29:26;;;;;;;13.10;3.17;;;;;;;12.87;84.75;100656.56;5386175;27;20026;-68
2022/11/03 08:31:57;;;;;;;5.38;2.70;;;;;;;12.89;83.63;100647.94;5385614;27;20018;-69
2022/11/03 08:34:28;;;;;;;8.98;3.80;;;;;;;12.89;83.68;100643.19;5386321;27;20025;-69
2022/11/03 08:37:00;;;;;;;6.28;2.58;;;;;;;12.95;83.72;100639.13;5385394;27;20456;-68
2022/11/03 08:39:31;;;;;;;9.07;3.25;;;;;;;12.98;83.62;100632.94;5385255;27;20027;-68
2022/11/03 08:42:02;;;;;;;6.00;2.83;;;;;;;12.99;83.06;100619.88;5386300;27;20026;-68
2022/11/03 08:44:34;;;;;;;8.82;3.00;;;;;;;13.00;83.19;100608.41;5386100;27;20110;-68
2022/11/03 08:47:05;;;;;;;7.28;3.17;;;;;;;13.07;82.91;100593.25;5385462;27;20045;-68
2022/11/03 08:49:36;;;;;;;9.88;3.33;;;;;;;13.09;82.37;100588.19;5385681;27;20022;-69
2022/11/03 08:52:08;;;;;;;12.40;4.15;;;;;;;13.14;82.06;100593.63;5385908;27;20030;-69
2022/11/03 08:54:39;;;;;;;9.02;2.80;;;;;;;13.15;82.21;100584.16;5384460;27;20102;-69
2022/11/03 08:57:10;;;;;;;6.72;2.80;;;;;;;13.21;81.14;100580.94;5385685;27;20033;-69
2022/11/03 08:59:41;;;;;;;11.63;3.78;;;;;;;13.25;80.99;100573.59;5384873;27;20070;-69
2022/11/03 09:02:13;;;;;;;10.65;2.83;;;;;;;13.29;81.21;100567.44;5386046;27;20429;-68
2022/11/03 09:04:50;;;;;;;6.40;3.08;;;;;;;13.33;80.94;100558.13;5385494;27;20019;-71
2022/11/03 09:07:21;;;;;;;8.60;3.60;;;;;;;13.42;80.51;100559.03;5384921;27;20026;-67
2022/11/03 09:09:52;;;;;;;7.18;2.58;;;;;;;13.51;81.14;100544.34;5385549;27;20078;-70
2022/11/03 09:12:26;;;;;;;6.70;2.25;;;;;;;13.57;80.99;100551.44;5372583;27;20482;-70
2022/11/03 09:14:58;;;;;;;6.22;2.47;;;;;;;13.55;79.98;100536.97;5354890;27;20034;-71
2022/11/03 09:17:29;;;;;;;6.18;2.40;;;;;;;13.59;79.36;100527.69;5349111;27;20386;-71
2022/11/03 09:20:00;;;;;;;6.13;2.80;;;;;;;13.62;79.20;100515.06;5349074;27;20019;-73
2022/11/03 09:22:32;;;;;;;6.10;2.92;;;;;;;13.58;78.14;100511.31;5348589;27;20031;-72
2022/11/03 09:25:05;;;;;;;8.00;3.45;;;;;;;13.61;77.95;100491.97;5347460;27;20105;-72
2022/11/03 09:27:37;;;;;;;4.65;2.53;;;;;;;13.76;79.43;100487.16;5360445;27;20049;-72
2022/11/03 09:30:09;;;;;;;4.45;2.20;;;;;;;13.74;78.67;100493.03;5352879;27;20485;-71
2022/11/03 09:32:45;;;;;;;6.28;2.72;;;;;;;13.73;78.14;100476.63;5349016;27;20481;-70
2022/11/03 09:35:16;;;;;;;8.07;2.90;;;;;;;13.69;77.04;100471.69;5349757;27;20326;-72
2022/11/03 09:37:47;;;;;;;6.00;2.42;;;;;;;13.70;77.26;100461.34;5369644;27;20038;-71
2022/11/03 09:40:23;;;;;;;8.55;3.08;;;;;;;13.73;77.08;100468.25;5370086;27;20035;-72
2022/11/03 09:42:55;;;;;;;5.82;2.63;;;;;;;13.74;77.50;100465.16;5351846;27;20077;-73
2022/11/03 09:45:27;;;;;;;6.65;3.05;;;;;;;13.76;77.00;100462.06;5348176;27;20382;-72
2022/11/03 09:48:01;;;;;;;6.30;2.58;;;;;;;13.78;76.86;100449.44;5347654;27;20043;-72
2022/11/03 09:50:38;;;;;;;22.70;16.50;;;;;;;13.87;77.92;100443.91;5347414;27;20027;-72
2022/11/03 09:53:11;;;;;;;7.30;3.20;;;;;;;13.79;76.25;100436.34;5352271;27;20031;-72
2022/11/03 09:55:42;;;;;;;6.03;2.50;;;;;;;14.01;79.87;100432.63;5366667;27;20022;-71
2022/11/03 09:58:15;;;;;;;8.40;3.00;;;;;;;13.90;76.53;100432.91;5363910;27;20023;-72
2022/11/03 10:00:47;;;;;;;10.20;3.88;;;;;;;13.89;76.53;100431.28;5362687;27;20042;-72
2022/11/03 10:03:19;;;;;;;8.52;3.50;;;;;;;13.87;76.13;100429.97;5368474;27;20067;-74
2022/11/03 10:05:51;;;;;;;5.70;2.25;;;;;;;13.85;76.14;100424.69;5369663;27;20094;-72
2022/11/03 10:08:25;;;;;;;5.72;2.40;;;;;;;13.84;75.88;100420.28;5369872;27;20026;-72
2022/11/03 10:10:57;;;;;;;5.95;3.28;;;;;;;13.82;76.10;100417.00;5368712;27;20023;-72
2022/11/03 10:13:37;;;;;;;4.80;2.45;;;;;;;13.85;76.07;100412.75;5369954;27;20018;-73
2022/11/03 10:16:13;;;;;;;8.73;2.90;;;;;;;13.86;76.28;100409.63;5348957;27;20043;-72
2022/11/03 10:18:45;;;;;;;8.48;3.22;;;;;;;13.87;75.95;100405.69;5347916;27;20019;-73
2022/11/03 10:21:28;;;;;;;4.50;2.42;;;;;;;13.88;76.25;100395.34;5347801;27;20346;-72
2022/11/03 10:23:59;;;;;;;8.10;3.28;;;;;;;13.87;75.86;100394.53;5346402;27;20031;-73
2022/11/03 10:26:52;;;;;;;6.57;2.90;;;;;;;13.87;75.47;100388.97;5347561;27;20438;-73
2022/11/03 10:29:27;;;;;;;7.70;3.47;;;;;;;13.87;75.53;100383.41;5365094;27;20398;-71
2022/11/03 10:31:59;;;;;;;;;;;;;;;13.94;75.39;100388.50;5369304;27;20066;-72
2022/11/03 10:34:38;;;;;;;6.95;2.92;;;;;;;13.94;75.47;100382.13;5367831;27;19915;-71
2022/11/03 10:37:16;;;;;;;6.82;2.90;;;;;;;13.94;75.12;100370.97;5355745;27;20085;-72
2022/11/03 10:39:51;;;;;;;7.47;2.42;;;;;;;13.95;75.15;100369.81;5350192;27;20015;-71
2022/11/03 10:42:25;;;;;;;6.18;2.25;;;;;;;13.98;74.44;100366.38;5365603;27;20460;-71
2022/11/03 10:45:17;;;;;;;6.93;2.95;;;;;;;14.08;74.71;100366.06;5364130;27;20484;-71
2022/11/03 10:48:09;;;;;;;6.03;2.30;;;;;;;14.12;74.65;100370.69;5329011;27;20102;-71
2022/11/03 10:50:42;;;;;;;6.93;2.22;;;;;;;14.11;74.16;100366.25;5347569;27;20027;-71
2022/11/03 10:53:19;;;;;;;9.20;3.72;;;;;;;14.16;73.57;100365.25;5355250;27;20023;-72
2022/11/03 10:55:50;;;;;;;20.17;14.07;;;;;;;14.21;73.52;100353.13;5369087;27;20035;-73
2022/11/03 10:58:22;;;;;;;7.68;4.53;;;;;;;14.21;72.72;100347.56;5358813;27;20023;-73
2022/11/03 11:00:54;;;;;;;7.60;3.22;;;;;;;14.25;72.98;100349.38;5346191;27;20049;-72
2022/11/03 11:03:26;;;;;;;5.45;2.25;;;;;;;14.29;72.29;100339.22;5347453;27;20480;-72
2022/11/03 11:05:57;;;;;;;6.35;2.40;;;;;;;14.34;72.09;100343.78;5347228;27;20027;-72
2022/11/03 11:08:30;;;;;;;8.65;3.53;;;;;;;14.34;71.99;100336.25;5346372;27;20080;-72
2022/11/03 11:11:06;;;;;;;6.80;2.30;;;;;;;14.33;71.85;100339.38;5361927;27;20042;-73
2022/11/03 11:13:40;;;;;;;6.60;2.33;;;;;;;14.36;72.56;100333.94;5367976;27;20053;-72
2022/11/03 11:16:49;;;;;;;6.40;2.67;;;;;;;14.40;71.99;100328.53;5370970;27;20053;-72
2022/11/03 11:19:23;;;;;;;7.60;3.08;;;;;;;14.47;73.37;100312.13;5361492;27;20106;-75
2022/11/03 11:21:58;;;;;;;9.52;2.67;;;;;;;14.47;71.86;100309.34;5375078;27;20052;-74
2022/11/03 11:24:42;;;;;;;;;;;;;;;14.55;71.22;100307.72;5371512;27;20415;-74
2022/11/03 11:27:32;;;;;;;5.18;2.20;;;;;;;14.56;71.59;100309.38;5363173;27;19911;-72
2022/11/03 11:30:06;;;;;;;10.60;6.70;;;;;;;14.53;70.82;100293.28;5348051;27;20062;-73
2022/11/03 11:32:40;;;;;;;5.93;2.38;;;;;;;14.62;72.39;100284.91;5346821;27;20469;-76
2022/11/03 11:35:14;;;;;;;7.90;2.83;;;;;;;14.57;70.68;100272.78;5345893;27;20027;-72
2022/11/03 11:37:45;;;;;;;5.93;2.70;;;;;;;14.62;71.10;100277.34;5347354;27;20466;-73
2022/11/03 11:40:22;;;;;;;6.60;2.83;;;;;;;14.69;71.38;100269.28;5349568;27;20042;-74
2022/11/03 11:43:03;;;;;;;6.20;2.80;;;;;;;14.73;70.57;100259.09;5345955;27;20027;-73
2022/11/03 11:46:13;;;;;;;6.63;2.38;;;;;;;14.70;69.75;100254.19;5365962;27;20033;-73
2022/11/03 11:48:44;;;;;;;6.35;2.53;;;;;;;14.69;69.49;100248.94;5365401;27;20023;-74
2022/11/03 11:51:19;;;;;;;4.93;2.50;;;;;;;14.73;70.40;100230.38;5365804;27;20029;-73
2022/11/03 11:53:50;;;;;;;4.30;2.53;;;;;;;14.74;70.16;100215.25;5367749;27;20385;-73
2022/11/03 11:56:22;;;;;;;6.80;3.17;;;;;;;14.74;70.24;100201.31;5366729;27;20027;-73
2022/11/03 11:58:56;;;;;;;6.28;3.08;;;;;;;14.76;69.46;100199.81;5367738;27;20106;-73
2022/11/03 12:01:33;;;;;;;6.75;2.13;;;;;;;14.79;69.92;100189.97;5357576;27;20087;-73
2022/11/03 12:04:18;;;;;;;5.93;2.45;;;;;;;14.85;69.35;100182.22;5345674;28;20030;-73
2022/11/03 12:06:50;;;;;;;5.78;2.13;;;;;;;14.83;69.27;100178.94;5346024;27;20031;-73
2022/11/03 12:09:25;;;;;;;5.00;2.70;;;;;;;14.92;69.93;100179.72;5347496;27;20027;-78
2022/11/03 12:11:59;;;;;;;6.45;2.22;;;;;;;14.97;69.33;100176.75;5354106;27;20019;-69
2022/11/03 12:14:30;;;;;;;8.30;2.58;;;;;;;14.92;68.00;100177.75;5352216;27;20346;-72
2022/11/03 12:17:17;;;;;;;4.97;2.33;;;;;;;15.01;69.11;100166.56;5344823;27;20023;-71
2022/11/03 12:19:51;;;;;;;18.25;15.18;;;;;;;15.02;67.80;100165.41;5367313;27;20031;-72
2022/11/03 12:22:22;;;;;;;13.32;9.38;;;;;;;15.08;68.24;100161.25;5367693;27;20025;-71
2022/11/03 12:24:58;;;;;;;4.82;2.38;;;;;;;15.07;67.12;100164.41;5366824;27;20022;-71
2022/11/03 12:27:40;;;;;;;;;;;;;;;15.15;67.83;100152.34;5350825;27;20027;-73
2022/11/03 12:30:17;;;;;;;8.70;2.03;;;;;;;15.13;67.14;100143.50;5346183;28;20362;-74
2022/11/03 12:32:50;;;;;;;3.85;2.20;;;;;;;15.15;66.39;100136.41;5345381;28;20541;-73
2022/11/03 12:35:22;;;;;;;4.47;2.13;;;;;;;15.20;66.71;100139.00;5347221;27;20088;-74
2022/11/03 12:37:54;;;;;;;9.15;2.53;;;;;;;15.20;66.31;100125.03;5326641;28;20095;-73
2022/11/03 12:40:26;;;;;;;4.05;2.10;;;;;;;15.27;66.36;100120.91;5345923;28;20407;-72
2022/11/03 12:42:57;;;;;;;7.00;2.35;;;;;;;15.26;66.19;100119.25;5345366;28;20064;-72
2022/11/03 12:45:32;;;;;;;3.95;1.70;;;;;;;15.33;66.42;100102.78;5345972;27;20027;-72
2022/11/03 12:48:05;;;;;;;4.97;1.90;;;;;;;15.34;66.32;100108.03;5361035;27;20353;-72
2022/11/03 12:50:38;;;;;;;7.20;2.90;;;;;;;15.33;65.65;100098.00;5358698;27;20038;-72
2022/11/03 12:53:09;;;;;;;9.65;2.40;;;;;;;15.36;66.65;100090.91;5364624;27;20103;-72
2022/11/03 12:55:41;;;;;;;5.30;1.95;;;;;;;15.37;66.25;100087.78;5350467;27;20068;-72
2022/11/03 12:58:12;;;;;;;5.63;1.90;;;;;;;15.34;66.24;100073.66;5349374;27;20015;-72
2022/11/03 13:00:43;;;;;;;6.70;2.25;;;;;;;15.29;65.87;100069.13;5348309;27;20047;-72
2022/11/03 13:03:17;;;;;;;4.82;1.80;;;;;;;15.27;66.12;100057.47;5349801;27;20031;-72
2022/11/03 13:05:48;;;;;;;7.68;2.30;;;;;;;15.28;66.09;100061.88;5348530;27;20031;-72
2022/11/03 13:08:20;;;;;;;3.65;2.10;;;;;;;15.27;65.71;100049.09;5353390;27;20501;-72
2022/11/03 13:10:52;;;;;;;5.43;1.98;;;;;;;15.29;65.99;100051.53;5349595;27;20474;-72
2022/11/03 13:13:24;;;;;;;6.72;1.98;;;;;;;15.29;66.28;100035.59;5348641;27;20019;-73
2022/11/03 13:15:55;;;;;;;4.90;2.22;;;;;;;15.28;65.89;100033.16;5348946;27;20131;-72
2022/11/03 13:18:26;;;;;;;10.13;4.13;;;;;;;15.35;67.38;100030.63;5349225;27;20128;-72
2022/11/03 13:20:57;;;;;;;4.68;1.88;;;;;;;15.23;65.31;100026.59;5348464;27;20118;-73
2022/11/03 13:23:29;;;;;;;5.55;1.90;;;;;;;15.28;66.09;100027.56;5349497;27;20027;-73
2022/11/03 13:26:04;;;;;;;6.10;2.17;;;;;;;15.26;66.24;100027.06;5361472;27;20015;-73
2022/11/03 13:28:35;;;;;;;7.47;5.45;;;;;;;15.29;67.37;100004.03;5358679;27;20461;-71
2022/11/03 13:31:07;;;;;;;14.98;10.55;;;;;;;15.28;67.35;100005.22;5347938;27;20054;-71
2022/11/03 13:33:38;;;;;;;4.63;2.42;;;;;;;15.27;67.11;99998.81;5348700;27;20027;-71
2022/11/03 13:36:10;;;;;;;5.90;2.13;;;;;;;15.22;67.26;99997.03;5348292;27;20019;-72
2022/11/03 13:38:47;;;;;;;11.05;4.88;;;;;;;15.20;67.34;100001.34;5347180;27;20090;-71
2022/11/03 13:41:18;;;;;;;7.78;3.58;;;;;;;15.16;67.61;99998.41;5348073;27;20027;-72
2022/11/03 13:43:49;;;;;;;4.47;2.22;;;;;;;15.14;67.81;99986.75;5349548;27;20027;-71
2022/11/03 13:46:22;;;;;;;5.78;2.55;;;;;;;15.14;68.42;99992.34;5362521;27;20517;-72
2022/11/03 13:48:56;;;;;;;14.48;7.53;;;;;;;15.23;72.03;99993.06;5358039;27;20023;-71
2022/11/03 13:51:28;;;;;;;8.10;2.90;;;;;;;15.16;69.98;99987.25;5370375;27;20422;-71
2022/11/03 13:53:59;;;;;;;5.88;3.25;;;;;;;15.18;69.47;99992.47;5370023;27;20139;-69
2022/11/03 13:56:33;;;;;;;6.28;2.70;;;;;;;15.12;68.43;99993.84;5369234;27;20115;-70
2022/11/03 13:59:07;;;;;;;5.40;2.22;;;;;;;15.08;68.84;99988.09;5356994;27;20035;-71
2022/11/03 14:01:38;;;;;;;7.72;3.03;;;;;;;15.05;69.73;99999.97;5367943;27;20062;-70
2022/11/03 14:04:09;;;;;;;5.03;2.92;;;;;;;14.99;70.17;99993.78;5368298;27;20023;-70
2022/11/03 14:06:41;;;;;;;4.60;2.22;;;;;;;14.94;71.05;99987.59;5348944;27;20042;-70
2022/11/03 14:09:12;;;;;;;6.30;2.70;;;;;;;14.88;72.31;99998.13;5346615;27;20031;-70
2022/11/03 14:14:33;;;;;;;5.63;2.35;;;;;;;14.70;74.65;99968.69;5348228;27;20377;-70
2022/11/03 14:17:04;;;;;;;3.83;2.08;;;;;;;14.65;75.19;99980.88;5349524;27;20035;-70
2022/11/03 14:19:36;;;;;;;5.88;2.22;;;;;;;14.57;75.26;99970.56;5362584;27;20023;-70
2022/11/03 14:22:07;;;;;;;4.40;3.40;;;;;;;14.55;77.04;99956.16;5369301;27;20033;-71
2022/11/03 14:24:38;;;;;;;3.75;2.42;;;;;;;14.52;77.29;99962.38;5368572;27;20461;-71
2022/11/03 14:27:10;;;;;;;7.13;4.85;;;;;;;14.51;78.51;99946.81;5369498;27;20030;-70
2022/11/03 14:29:48;;;;;;;5.07;3.00;;;;;;;14.53;78.36;99962.06;5368843;27;20031;-71
2022/11/03 14:32:19;;;;;;;6.75;4.18;;;;;;;14.49;79.85;99963.06;5361478;27;20077;-71
2022/11/03 14:34:52;;;;;;;5.22;3.40;;;;;;;14.48;80.48;99953.06;5352375;27;20039;-71
2022/11/03 14:37:24;;;;;;;6.00;2.67;;;;;;;14.36;81.00;99949.00;5363740;27;20486;-71
2022/11/03 14:39:55;;;;;;;7.32;2.95;;;;;;;14.28;80.93;99935.94;5365171;27;20050;-72
2022/11/03 14:42:26;;;;;;;5.32;2.50;;;;;;;14.25;81.85;99931.03;5347943;27;20031;-72
2022/11/03 14:44:59;;;;;;;7.18;4.45;;;;;;;14.18;82.94;99927.94;5346578;27;20019;-71
2022/11/03 14:47:30;;;;;;;4.65;2.65;;;;;;;14.19;83.46;99915.66;5363016;27;20105;-71
2022/11/03 14:50:01;;;;;;;4.30;2.65;;;;;;;14.09;83.07;99913.25;5369178;27;20430;-71
2022/11/03 14:52:37;;;;;;;5.13;2.60;;;;;;;14.10;83.69;99903.72;5330781;27;20034;-71
2022/11/03 14:55:08;;;;;;;4.78;2.60;;;;;;;14.04;84.96;99894.75;5363434;27;20018;-71
2022/11/03 14:57:40;;;;;;;6.18;2.47;;;;;;;14.17;84.38;99892.88;5347521;27;20039;-70
2022/11/03 15:00:11;;;;;;;4.25;2.72;;;;;;;14.22;84.51;99891.88;5345137;27;20126;-70
2022/11/03 15:02:44;;;;;;;6.05;2.60;;;;;;;14.21;85.09;99882.66;5347065;27;20076;-71
2022/11/03 15:08:07;;;;;;;3.55;3.05;;;;;;;14.20;85.88;99872.66;5361411;27;20035;-71
2022/11/03 15:10:38;;;;;;;5.13;2.53;;;;;;;14.18;85.40;99872.19;5346437;27;20051;-70
2022/11/03 15:13:10;;;;;;;4.78;2.40;;;;;;;14.12;86.32;99865.19;5347401;27;20050;-71
2022/11/03 15:15:41;;;;;;;7.78;3.60;;;;;;;14.12;86.44;99877.16;5346968;27;20088;-71
2022/11/03 15:18:14;;;;;;;8.73;3.00;;;;;;;14.14;86.10;99879.59;5361555;27;20019;-70
2022/11/03 15:20:45;;;;;;;5.38;2.75;;;;;;;14.09;86.41;99865.88;5366088;27;20418;-70
2022/11/03 15:23:17;;;;;;;11.20;3.83;;;;;;;14.12;87.26;99854.03;5346864;27;20080;-70
2022/11/03 15:25:48;;;;;;;5.70;3.05;;;;;;;14.04;86.87;99852.13;5346563;27;20412;-71
2022/11/03 15:28:20;;;;;;;7.53;3.60;;;;;;;14.14;86.12;99848.94;5353344;27;20045;-69
2022/11/03 15:30:51;;;;;;;7.20;3.70;;;;;;;14.14;86.42;99844.16;5368447;27;20404;-69
2022/11/03 15:33:23;;;;;;;7.25;3.35;;;;;;;14.09;86.67;99840.78;5354173;27;20051;-70
2022/11/03 15:35:55;;;;;;;6.88;3.25;;;;;;;13.97;86.08;99837.88;5347902;27;20023;-70
2022/11/03 15:38:26;;;;;;;7.18;3.47;;;;;;;14.12;86.97;99837.31;5367950;27;20023;-72
2022/11/03 15:41:15;;;;;;;7.43;2.75;;;;;;;14.06;86.22;99824.69;5367310;27;20019;-71
2022/11/03 15:43:50;;;;;;;6.15;2.65;;;;;;;14.04;86.21;99813.09;5366383;27;20046;-71
2022/11/03 15:46:21;;;;;;;6.68;4.22;;;;;;;14.06;86.04;99810.75;5356416;27;20469;-70
2022/11/03 15:48:56;;;;;;;7.05;2.83;;;;;;;13.99;85.68;99799.34;5367560;27;20071;-71
2022/11/03 15:51:28;;;;;;;5.10;2.72;;;;;;;13.95;86.14;99798.38;5349667;27;20030;-72
2022/11/03 15:54:02;;;;;;;4.68;2.70;;;;;;;13.94;86.06;99785.59;5361916;27;20022;-73
2022/11/03 15:56:33;;;;;;;7.63;2.78;;;;;;;13.87;86.30;99770.22;5364343;27;20023;-71
2022/11/03 15:59:05;;;;;;;7.68;3.25;;;;;;;13.83;86.83;99772.06;5361044;27;20470;-73
2022/11/03 16:01:36;;;;;;;7.03;4.38;;;;;;;13.94;86.31;99769.69;5345729;28;20047;-72
2022/11/03 16:04:07;;;;;;;23.95;21.38;;;;;;;13.94;86.60;99769.69;5346906;27;20041;-70
2022/11/03 16:06:45;;;;;;;7.43;4.45;;;;;;;13.96;86.53;99778.53;5351863;27;20181;-71
2022/11/03 16:09:16;;;;;;;4.90;3.30;;;;;;;13.90;87.44;99780.69;5368629;27;20034;-71
2022/11/03 16:11:47;;;;;;;5.70;3.72;;;;;;;13.88;88.17;99766.28;5368574;27;20393;-70
2022/11/03 16:14:19;;;;;;;6.30;3.17;;;;;;;13.94;88.68;99771.66;5373138;27;20425;-69
2022/11/03 16:16:50;;;;;;;8.23;3.20;;;;;;;13.82;89.04;99762.06;5376416;27;20042;-69
2022/11/03 16:19:21;;;;;;;7.78;3.30;;;;;;;13.75;89.44;99761.75;5386475;27;20059;-73
2022/11/03 16:21:53;;;;;;;5.38;3.50;;;;;;;13.81;89.37;99768.78;5379827;27;20015;-73
2022/11/03 16:24:24;;;;;;;3.92;3.28;;;;;;;13.73;90.60;99764.09;5377111;27;20014;-71
2022/11/03 16:26:55;;;;;;;5.10;2.83;;;;;;;13.80;90.81;99767.16;5377882;27;20055;-71
2022/11/03 16:29:26;;;;;;;6.95;4.13;;;;;;;13.70;90.62;99761.97;5385867;27;20035;-71
2022/11/03 16:31:58;;;;;;;33.30;28.52;;;;;;;13.74;91.67;99754.56;5383045;27;20007;-72
2022/11/03 16:34:29;;;;;;;41.60;37.25;;;;;;;13.71;91.85;99760.81;5370196;27;20027;-70
2022/11/03 16:37:00;;;;;;;6.43;4.32;;;;;;;13.73;92.36;99755.75;5365778;27;20537;-72
2022/11/03 16:39:32;;;;;;;8.95;4.00;;;;;;;13.71;92.59;99766.41;5365449;27;20068;-72
2022/11/03 16:42:04;;;;;;;8.00;3.80;;;;;;;13.53;93.70;99759.31;5366956;27;20031;-71
2022/11/03 16:44:39;;;;;;;5.97;3.85;;;;;;;13.54;94.59;99763.72;5370475;27;20376;-74
2022/11/03 16:47:10;;;;;;;6.53;3.33;;;;;;;13.49;94.81;99757.16;5372913;27;20051;-73
2022/11/03 16:49:41;;;;;;;5.80;3.90;;;;;;;13.51;95.43;99744.88;5368312;27;20134;-72
2022/11/03 16:52:13;;;;;;;10.13;8.43;;;;;;;13.49;95.81;99748.81;5361427;27;20019;-72
2022/11/03 16:54:44;;;;;;;7.05;4.15;;;;;;;13.47;95.67;99750.28;5357905;27;20023;-72
2022/11/03 16:57:16;;;;;;;7.93;4.20;;;;;;;13.51;96.37;99744.88;5360254;27;20120;-72
2022/11/03 16:59:48;;;;;;;6.38;4.13;;;;;;;13.50;96.23;99746.84;5381740;27;20058;-73
2022/11/03 17:02:20;;;;;;;7.50;4.60;;;;;;;13.47;96.06;99755.84;5375504;27;20023;-73
2022/11/03 17:04:52;;;;;;;6.13;3.85;;;;;;;13.44;96.43;99756.53;5366541;27;20074;-73
2022/11/03 17:07:24;;;;;;;8.93;3.92;;;;;;;13.40;96.39;99750.84;5377490;27;20048;-73
2022/11/03 17:09:55;;;;;;;5.18;3.38;;;;;;;13.25;96.50;99743.00;5359011;27;20045;-73
2022/11/03 17:12:28;;;;;;;4.40;3.67;;;;;;;13.25;97.14;99745.78;5354800;27;20039;-73
2022/11/03 17:14:59;;;;;;;5.03;4.07;;;;;;;13.22;97.70;99743.69;5357334;27;20087;-75
2022/11/03 17:17:30;;;;;;;5.57;4.05;;;;;;;13.22;98.20;99736.16;5357777;27;20027;-71
2022/11/03 17:20:03;;;;;;;7.45;6.72;;;;;;;13.10;98.11;99738.00;5351463;27;20081;-72
2022/11/03 17:22:35;;;;;;;8.45;6.70;;;;;;;13.20;98.94;99729.28;5353459;27;20034;-72
2022/11/03 17:25:09;;;;;;;5.80;4.32;;;;;;;13.12;98.82;99735.72;5366286;27;20019;-72
2022/11/03 17:27:48;;;;;;;9.02;5.40;;;;;;;13.16;99.74;99733.88;5352530;27;20031;-73
2022/11/03 17:30:22;;;;;;;9.30;5.35;;;;;;;13.11;99.47;99720.94;5349478;27;20034;-72
2022/11/03 17:33:00;;;;;;;6.50;5.20;;;;;;;13.07;99.59;99708.88;5349086;27;20019;-72
